sensor_id;sensor_type;location;lat;lon;timestamp;temperature;humidity
21950;DHT22;11139;51.284;7.226;2023-05-10T00:00:18;15.10;99.90
21950;DHT22;11139;51.284;7.226;2023-05-10T00:02:44;15.10;99.90
21950;DHT22;11139;51.284;7.226;2023-05-10T00:05:09;15.10;99.90
21950;DHT22;11139;51.284;7.226;2023-05-10T00:07:35;15.10;99.90
21950;DHT22;11139;51.284;7.226;2023-05-10T00:10:00;15.10;99.90
21950;DHT22;11139;51.284;7.226;2023-05-10T00:12:26;15.10;99.90
21950;DHT22;11139;51.284;7.226;2023-05-10T00:14:54;15.10;99.90
21950;DHT22;11139;51.284;7.226;2023-05-10T00:17:22;15.10;99.90
21950;DHT22;11139;51.284;7.226;2023-05-10T00:19:47;15.10;99.90
21950;DHT22;11139;51.284;7.226;2023-05-10T00:22:13;15.10;99.90
21950;DHT22;11139;51.284;7.226;2023-05-10T00:24:39;15.10;99.90
21950;DHT22;11139;51.284;7.226;2023-05-10T00:27:04;15.10;99.90
21950;DHT22;11139;51.284;7.226;2023-05-10T00:29:30;15.00;99.90
21950;DHT22;11139;51.284;7.226;2023-05-10T00:31:56;15.00;99.90
21950;DHT22;11139;51.284;7.226;2023-05-10T00:34:22;15.00;99.90
21950;DHT22;11139;51.284;7.226;2023-05-10T00:36:48;15.00;99.90
21950;DHT22;11139;51.284;7.226;2023-05-10T00:39:13;15.00;99.90
21950;DHT22;11139;51.284;7.226;2023-05-10T00:41:41;15.00;99.90
21950;DHT22;11139;51.284;7.226;2023-05-10T00:44:10;15.00;99.90
21950;DHT22;11139;51.284;7.226;2023-05-10T00:46:35;15.00;99.90
21950;DHT22;11139;51.284;7.226;2023-05-10T00:49:01;15.00;99.90
21950;DHT22;11139;51.284;7.226;2023-05-10T00:51:33;15.00;99.90
21950;DHT22;11139;51.284;7.226;2023-05-10T00:53:58;15.00;99.90
21950;DHT22;11139;51.284;7.226;2023-05-10T00:56:26;15.00;99.90
21950;DHT22;11139;51.284;7.226;2023-05-10T00:58:54;15.00;99.90
21950;DHT22;11139;51.284;7.226;2023-05-10T01:01:23;15.00;99.90
21950;DHT22;11139;51.284;7.226;2023-05-10T01:03:48;15.00;99.90
21950;DHT22;11139;51.284;7.226;2023-05-10T01:06:20;15.00;99.90
21950;DHT22;11139;51.284;7.226;2023-05-10T01:08:49;15.00;99.90
21950;DHT22;11139;51.284;7.226;2023-05-10T01:11:15;15.00;99.90
21950;DHT22;11139;51.284;7.226;2023-05-10T01:13:40;15.00;99.90
21950;DHT22;11139;51.284;7.226;2023-05-10T01:16:09;14.90;99.90
21950;DHT22;11139;51.284;7.226;2023-05-10T01:18:36;15.00;99.90
21950;DHT22;11139;51.284;7.226;2023-05-10T01:34:09;15.00;99.90
21950;DHT22;11139;51.284;7.226;2023-05-10T01:36:40;15.00;99.90
21950;DHT22;11139;51.284;7.226;2023-05-10T01:41:48;14.90;99.90
21950;DHT22;11139;51.284;7.226;2023-05-10T01:46:40;14.90;99.90
21950;DHT22;11139;51.284;7.226;2023-05-10T01:49:09;14.90;99.90
21950;DHT22;11139;51.284;7.226;2023-05-10T01:51:38;14.90;99.90
21950;DHT22;11139;51.284;7.226;2023-05-10T01:54:04;14.90;99.90
21950;DHT22;11139;51.284;7.226;2023-05-10T01:56:31;14.90;99.90
21950;DHT22;11139;51.284;7.226;2023-05-10T01:58:58;14.90;99.90
21950;DHT22;11139;51.284;7.226;2023-05-10T02:01:25;14.90;99.90
21950;DHT22;11139;51.284;7.226;2023-05-10T02:03:51;14.90;99.90
21950;DHT22;11139;51.284;7.226;2023-05-10T02:06:18;14.90;99.90
21950;DHT22;11139;51.284;7.226;2023-05-10T02:08:45;14.90;99.90
21950;DHT22;11139;51.284;7.226;2023-05-10T02:11:14;14.90;99.90
21950;DHT22;11139;51.284;7.226;2023-05-10T02:13:39;14.80;99.90
21950;DHT22;11139;51.284;7.226;2023-05-10T02:16:10;14.80;99.90
21950;DHT22;11139;51.284;7.226;2023-05-10T02:18:36;14.80;99.90
21950;DHT22;11139;51.284;7.226;2023-05-10T02:21:09;14.80;99.90
21950;DHT22;11139;51.284;7.226;2023-05-10T02:23:35;14.80;99.90
21950;DHT22;11139;51.284;7.226;2023-05-10T02:26:04;14.80;99.90
21950;DHT22;11139;51.284;7.226;2023-05-10T02:28:33;14.80;99.90
21950;DHT22;11139;51.284;7.226;2023-05-10T02:31:09;14.80;99.90
21950;DHT22;11139;51.284;7.226;2023-05-10T02:33:38;14.80;99.90
21950;DHT22;11139;51.284;7.226;2023-05-10T02:36:08;14.80;99.90
21950;DHT22;11139;51.284;7.226;2023-05-10T02:38:37;14.80;99.90
21950;DHT22;11139;51.284;7.226;2023-05-10T02:41:03;14.80;99.90
21950;DHT22;11139;51.284;7.226;2023-05-10T02:43:32;14.80;99.90
21950;DHT22;11139;51.284;7.226;2023-05-10T02:45:58;14.80;99.90
21950;DHT22;11139;51.284;7.226;2023-05-10T02:48:27;14.80;99.90
21950;DHT22;11139;51.284;7.226;2023-05-10T02:50:53;14.80;99.90
21950;DHT22;11139;51.284;7.226;2023-05-10T02:53:23;14.80;99.90
21950;DHT22;11139;51.284;7.226;2023-05-10T02:55:54;14.80;99.90
21950;DHT22;11139;51.284;7.226;2023-05-10T02:58:24;14.70;99.90
21950;DHT22;11139;51.284;7.226;2023-05-10T03:00:59;14.70;99.90
21950;DHT22;11139;51.284;7.226;2023-05-10T03:03:27;14.70;99.90
21950;DHT22;11139;51.284;7.226;2023-05-10T03:05:53;14.70;99.90
21950;DHT22;11139;51.284;7.226;2023-05-10T03:08:23;14.70;99.90
21950;DHT22;11139;51.284;7.226;2023-05-10T03:16:35;14.70;99.90
21950;DHT22;11139;51.284;7.226;2023-05-10T03:21:50;14.70;99.90
21950;DHT22;11139;51.284;7.226;2023-05-10T03:24:22;14.70;99.90
21950;DHT22;11139;51.284;7.226;2023-05-10T03:26:50;14.60;99.90
21950;DHT22;11139;51.284;7.226;2023-05-10T03:29:31;14.70;99.90
21950;DHT22;11139;51.284;7.226;2023-05-10T03:34:52;14.60;99.90
21950;DHT22;11139;51.284;7.226;2023-05-10T03:37:22;14.60;99.90
21950;DHT22;11139;51.284;7.226;2023-05-10T03:39:53;14.60;99.90
21950;DHT22;11139;51.284;7.226;2023-05-10T03:42:21;14.60;99.90
21950;DHT22;11139;51.284;7.226;2023-05-10T03:44:47;14.60;99.90
21950;DHT22;11139;51.284;7.226;2023-05-10T03:47:17;14.60;99.90
21950;DHT22;11139;51.284;7.226;2023-05-10T03:49:57;14.60;99.90
21950;DHT22;11139;51.284;7.226;2023-05-10T03:52:30;14.60;99.90
21950;DHT22;11139;51.284;7.226;2023-05-10T03:55:00;14.60;99.90
21950;DHT22;11139;51.284;7.226;2023-05-10T03:57:35;14.60;99.90
21950;DHT22;11139;51.284;7.226;2023-05-10T04:00:03;14.60;99.90
21950;DHT22;11139;51.284;7.226;2023-05-10T04:02:35;14.60;99.90
21950;DHT22;11139;51.284;7.226;2023-05-10T04:05:06;14.60;99.90
21950;DHT22;11139;51.284;7.226;2023-05-10T04:07:40;14.60;99.90
21950;DHT22;11139;51.284;7.226;2023-05-10T04:10:09;14.60;99.90
21950;DHT22;11139;51.284;7.226;2023-05-10T04:12:38;14.50;99.90
21950;DHT22;11139;51.284;7.226;2023-05-10T04:15:21;14.50;99.90
21950;DHT22;11139;51.284;7.226;2023-05-10T04:17:53;14.50;99.90
21950;DHT22;11139;51.284;7.226;2023-05-10T04:20:24;14.50;99.90
21950;DHT22;11139;51.284;7.226;2023-05-10T04:23:04;14.50;99.90
21950;DHT22;11139;51.284;7.226;2023-05-10T04:25:44;14.50;99.90
21950;DHT22;11139;51.284;7.226;2023-05-10T04:31:18;14.50;99.90
21950;DHT22;11139;51.284;7.226;2023-05-10T04:37:17;14.50;99.90
21950;DHT22;11139;51.284;7.226;2023-05-10T04:42:50;14.50;99.90
21950;DHT22;11139;51.284;7.226;2023-05-10T04:51:42;14.50;99.90
21950;DHT22;11139;51.284;7.226;2023-05-10T04:54:09;14.50;99.90
21950;DHT22;11139;51.284;7.226;2023-05-10T04:56:35;14.50;99.90
21950;DHT22;11139;51.284;7.226;2023-05-10T04:59:03;14.50;99.90
21950;DHT22;11139;51.284;7.226;2023-05-10T05:01:37;14.50;99.90
21950;DHT22;11139;51.284;7.226;2023-05-10T05:04:05;14.50;99.90
21950;DHT22;11139;51.284;7.226;2023-05-10T05:06:32;14.50;99.90
21950;DHT22;11139;51.284;7.226;2023-05-10T05:09:15;14.50;99.90
21950;DHT22;11139;51.284;7.226;2023-05-10T05:11:51;14.50;99.90
21950;DHT22;11139;51.284;7.226;2023-05-10T05:16:55;14.50;99.90
21950;DHT22;11139;51.284;7.226;2023-05-10T05:19:21;14.50;99.90
21950;DHT22;11139;51.284;7.226;2023-05-10T05:21:50;14.40;99.90
21950;DHT22;11139;51.284;7.226;2023-05-10T05:33:29;14.40;99.90
21950;DHT22;11139;51.284;7.226;2023-05-10T06:43:10;14.40;99.90
21950;DHT22;11139;51.284;7.226;2023-05-10T06:45:38;14.30;99.90
21950;DHT22;11139;51.284;7.226;2023-05-10T06:48:09;14.30;99.90
21950;DHT22;11139;51.284;7.226;2023-05-10T06:50:46;14.30;99.90
21950;DHT22;11139;51.284;7.226;2023-05-10T06:53:14;14.30;99.90
21950;DHT22;11139;51.284;7.226;2023-05-10T06:55:54;14.20;99.90
21950;DHT22;11139;51.284;7.226;2023-05-10T06:58:28;14.20;99.90
21950;DHT22;11139;51.284;7.226;2023-05-10T07:01:01;14.20;99.90
21950;DHT22;11139;51.284;7.226;2023-05-10T07:06:28;14.20;99.90
21950;DHT22;11139;51.284;7.226;2023-05-10T07:11:55;14.20;99.90
21950;DHT22;11139;51.284;7.226;2023-05-10T07:14:31;14.20;99.90
21950;DHT22;11139;51.284;7.226;2023-05-10T07:20:27;14.20;99.90
21950;DHT22;11139;51.284;7.226;2023-05-10T07:23:01;14.10;99.90
21950;DHT22;11139;51.284;7.226;2023-05-10T07:25:27;14.20;99.90
21950;DHT22;11139;51.284;7.226;2023-05-10T07:27:53;14.20;99.90
21950;DHT22;11139;51.284;7.226;2023-05-10T07:30:18;14.20;99.90
21950;DHT22;11139;51.284;7.226;2023-05-10T07:32:44;14.20;99.90
21950;DHT22;11139;51.284;7.226;2023-05-10T07:35:10;14.10;99.90
21950;DHT22;11139;51.284;7.226;2023-05-10T07:37:35;14.10;99.90
21950;DHT22;11139;51.284;7.226;2023-05-10T07:40:01;14.10;99.90
21950;DHT22;11139;51.284;7.226;2023-05-10T07:42:27;14.10;99.90
21950;DHT22;11139;51.284;7.226;2023-05-10T07:44:53;14.10;99.90
21950;DHT22;11139;51.284;7.226;2023-05-10T07:47:18;14.10;99.90
21950;DHT22;11139;51.284;7.226;2023-05-10T07:49:44;14.10;99.90
21950;DHT22;11139;51.284;7.226;2023-05-10T07:52:10;14.10;99.90
21950;DHT22;11139;51.284;7.226;2023-05-10T07:54:36;14.10;99.90
21950;DHT22;11139;51.284;7.226;2023-05-10T07:57:02;14.10;99.90
21950;DHT22;11139;51.284;7.226;2023-05-10T07:59:28;14.10;99.90
21950;DHT22;11139;51.284;7.226;2023-05-10T08:01:53;14.10;99.90
21950;DHT22;11139;51.284;7.226;2023-05-10T08:04:19;14.10;99.90
21950;DHT22;11139;51.284;7.226;2023-05-10T08:06:44;14.10;99.90
21950;DHT22;11139;51.284;7.226;2023-05-10T08:09:10;14.10;99.90
21950;DHT22;11139;51.284;7.226;2023-05-10T08:11:36;14.10;99.90
21950;DHT22;11139;51.284;7.226;2023-05-10T08:14:01;14.10;99.90
21950;DHT22;11139;51.284;7.226;2023-05-10T08:16:27;14.10;99.90
21950;DHT22;11139;51.284;7.226;2023-05-10T08:18:52;14.10;99.90
21950;DHT22;11139;51.284;7.226;2023-05-10T08:21:20;14.10;99.90
21950;DHT22;11139;51.284;7.226;2023-05-10T08:23:45;14.20;99.90
21950;DHT22;11139;51.284;7.226;2023-05-10T08:26:11;14.20;99.90
21950;DHT22;11139;51.284;7.226;2023-05-10T08:28:36;14.20;99.90
21950;DHT22;11139;51.284;7.226;2023-05-10T08:31:02;14.20;99.90
21950;DHT22;11139;51.284;7.226;2023-05-10T08:33:27;14.20;99.90
21950;DHT22;11139;51.284;7.226;2023-05-10T08:35:53;14.20;99.90
21950;DHT22;11139;51.284;7.226;2023-05-10T08:38:19;14.20;99.90
21950;DHT22;11139;51.284;7.226;2023-05-10T08:40:44;14.20;99.90
21950;DHT22;11139;51.284;7.226;2023-05-10T08:43:12;14.20;99.90
21950;DHT22;11139;51.284;7.226;2023-05-10T08:45:38;14.20;99.90
21950;DHT22;11139;51.284;7.226;2023-05-10T08:48:04;14.30;99.90
21950;DHT22;11139;51.284;7.226;2023-05-10T08:50:30;14.30;99.90
21950;DHT22;11139;51.284;7.226;2023-05-10T08:52:57;14.30;99.90
21950;DHT22;11139;51.284;7.226;2023-05-10T08:55:24;14.30;99.90
21950;DHT22;11139;51.284;7.226;2023-05-10T08:57:49;14.30;99.90
21950;DHT22;11139;51.284;7.226;2023-05-10T09:00:15;14.30;99.90
21950;DHT22;11139;51.284;7.226;2023-05-10T09:02:42;14.30;99.90
21950;DHT22;11139;51.284;7.226;2023-05-10T09:05:08;14.30;99.90
21950;DHT22;11139;51.284;7.226;2023-05-10T09:07:35;14.30;99.90
21950;DHT22;11139;51.284;7.226;2023-05-10T09:10:00;14.30;99.90
21950;DHT22;11139;51.284;7.226;2023-05-10T09:12:26;14.30;99.90
21950;DHT22;11139;51.284;7.226;2023-05-10T09:14:52;14.30;99.90
21950;DHT22;11139;51.284;7.226;2023-05-10T09:17:17;14.30;99.90
21950;DHT22;11139;51.284;7.226;2023-05-10T09:19:44;14.30;99.90
21950;DHT22;11139;51.284;7.226;2023-05-10T09:22:10;14.40;99.90
21950;DHT22;11139;51.284;7.226;2023-05-10T09:24:35;14.40;99.90
21950;DHT22;11139;51.284;7.226;2023-05-10T09:27:07;14.40;99.90
21950;DHT22;11139;51.284;7.226;2023-05-10T09:29:42;14.40;99.90
21950;DHT22;11139;51.284;7.226;2023-05-10T09:32:07;14.40;99.90
21950;DHT22;11139;51.284;7.226;2023-05-10T09:34:33;14.40;99.90
21950;DHT22;11139;51.284;7.226;2023-05-10T09:37:01;14.30;99.90
21950;DHT22;11139;51.284;7.226;2023-05-10T09:39:34;14.30;99.90
21950;DHT22;11139;51.284;7.226;2023-05-10T09:42:01;14.40;99.90
21950;DHT22;11139;51.284;7.226;2023-05-10T09:44:29;14.40;99.90
21950;DHT22;11139;51.284;7.226;2023-05-10T09:46:54;14.40;99.90
21950;DHT22;11139;51.284;7.226;2023-05-10T09:49:20;14.40;99.90
21950;DHT22;11139;51.284;7.226;2023-05-10T09:51:46;14.40;99.90
21950;DHT22;11139;51.284;7.226;2023-05-10T09:54:13;14.40;99.90
21950;DHT22;11139;51.284;7.226;2023-05-10T09:56:38;14.40;99.90
21950;DHT22;11139;51.284;7.226;2023-05-10T09:59:11;14.40;99.90
21950;DHT22;11139;51.284;7.226;2023-05-10T10:01:38;14.40;99.90
21950;DHT22;11139;51.284;7.226;2023-05-10T10:04:04;14.40;99.90
21950;DHT22;11139;51.284;7.226;2023-05-10T10:06:34;14.40;99.90
21950;DHT22;11139;51.284;7.226;2023-05-10T10:09:00;14.40;99.90
21950;DHT22;11139;51.284;7.226;2023-05-10T10:11:25;14.40;99.90
21950;DHT22;11139;51.284;7.226;2023-05-10T10:13:51;14.40;99.90
21950;DHT22;11139;51.284;7.226;2023-05-10T10:16:17;14.40;99.90
21950;DHT22;11139;51.284;7.226;2023-05-10T10:18:42;14.40;99.90
21950;DHT22;11139;51.284;7.226;2023-05-10T10:21:08;14.40;99.90
21950;DHT22;11139;51.284;7.226;2023-05-10T10:23:37;14.40;99.90
21950;DHT22;11139;51.284;7.226;2023-05-10T10:26:03;14.30;99.90
21950;DHT22;11139;51.284;7.226;2023-05-10T10:31:17;14.30;99.90
21950;DHT22;11139;51.284;7.226;2023-05-10T10:36:14;14.30;99.90
21950;DHT22;11139;51.284;7.226;2023-05-10T10:49:25;14.30;99.90
21950;DHT22;11139;51.284;7.226;2023-05-10T10:54:35;14.30;99.90
21950;DHT22;11139;51.284;7.226;2023-05-10T10:57:13;14.30;99.90
21950;DHT22;11139;51.284;7.226;2023-05-10T10:59:42;14.30;99.90
21950;DHT22;11139;51.284;7.226;2023-05-10T11:02:09;14.30;99.90
21950;DHT22;11139;51.284;7.226;2023-05-10T11:04:41;14.30;99.90
21950;DHT22;11139;51.284;7.226;2023-05-10T11:07:16;14.30;99.90
21950;DHT22;11139;51.284;7.226;2023-05-10T11:09:43;14.40;99.90
21950;DHT22;11139;51.284;7.226;2023-05-10T11:12:08;14.40;99.90
21950;DHT22;11139;51.284;7.226;2023-05-10T11:14:34;14.40;99.90
21950;DHT22;11139;51.284;7.226;2023-05-10T11:17:00;14.40;99.90
21950;DHT22;11139;51.284;7.226;2023-05-10T11:19:29;14.40;99.90
21950;DHT22;11139;51.284;7.226;2023-05-10T11:24:29;14.40;99.90
21950;DHT22;11139;51.284;7.226;2023-05-10T11:26:55;14.40;99.90
21950;DHT22;11139;51.284;7.226;2023-05-10T11:29:21;14.40;99.90
21950;DHT22;11139;51.284;7.226;2023-05-10T11:31:47;14.40;99.90
21950;DHT22;11139;51.284;7.226;2023-05-10T11:34:25;14.40;99.90
21950;DHT22;11139;51.284;7.226;2023-05-10T11:36:52;14.40;99.90
21950;DHT22;11139;51.284;7.226;2023-05-10T11:39:19;14.40;99.90
21950;DHT22;11139;51.284;7.226;2023-05-10T11:41:46;14.40;99.90
21950;DHT22;11139;51.284;7.226;2023-05-10T11:44:12;14.40;99.90
21950;DHT22;11139;51.284;7.226;2023-05-10T11:46:37;14.40;99.90
21950;DHT22;11139;51.284;7.226;2023-05-10T11:49:03;14.40;99.90
21950;DHT22;11139;51.284;7.226;2023-05-10T11:51:35;14.50;99.90
21950;DHT22;11139;51.284;7.226;2023-05-10T11:54:01;14.40;99.90
21950;DHT22;11139;51.284;7.226;2023-05-10T11:56:30;14.50;99.90
21950;DHT22;11139;51.284;7.226;2023-05-10T11:58:57;14.50;99.90
21950;DHT22;11139;51.284;7.226;2023-05-10T12:01:26;14.50;99.90
21950;DHT22;11139;51.284;7.226;2023-05-10T12:03:52;14.50;99.90
21950;DHT22;11139;51.284;7.226;2023-05-10T12:06:18;14.50;99.90
21950;DHT22;11139;51.284;7.226;2023-05-10T12:08:45;14.50;99.90
21950;DHT22;11139;51.284;7.226;2023-05-10T12:11:11;14.50;99.90
21950;DHT22;11139;51.284;7.226;2023-05-10T12:13:41;14.50;99.90
21950;DHT22;11139;51.284;7.226;2023-05-10T12:16:40;14.50;99.90
21950;DHT22;11139;51.284;7.226;2023-05-10T12:18:59;14.60;99.90
21950;DHT22;11139;51.284;7.226;2023-05-10T12:21:25;14.60;99.90
21950;DHT22;11139;51.284;7.226;2023-05-10T12:23:54;14.60;99.90
21950;DHT22;11139;51.284;7.226;2023-05-10T12:26:24;14.60;99.90
21950;DHT22;11139;51.284;7.226;2023-05-10T12:28:52;14.60;99.90
21950;DHT22;11139;51.284;7.226;2023-05-10T12:31:18;14.60;99.90
21950;DHT22;11139;51.284;7.226;2023-05-10T12:33:44;14.60;99.90
21950;DHT22;11139;51.284;7.226;2023-05-10T12:36:11;14.50;99.90
21950;DHT22;11139;51.284;7.226;2023-05-10T12:38:37;14.50;99.90
21950;DHT22;11139;51.284;7.226;2023-05-10T12:41:04;14.50;99.90
21950;DHT22;11139;51.284;7.226;2023-05-10T12:43:30;14.50;99.90
21950;DHT22;11139;51.284;7.226;2023-05-10T12:45:56;14.50;99.90
21950;DHT22;11139;51.284;7.226;2023-05-10T12:48:21;14.50;99.90
21950;DHT22;11139;51.284;7.226;2023-05-10T12:50:47;14.50;99.90
21950;DHT22;11139;51.284;7.226;2023-05-10T12:53:13;14.50;99.90
21950;DHT22;11139;51.284;7.226;2023-05-10T12:55:41;14.50;99.90
21950;DHT22;11139;51.284;7.226;2023-05-10T12:58:06;14.50;99.90
21950;DHT22;11139;51.284;7.226;2023-05-10T13:00:32;14.50;99.90
21950;DHT22;11139;51.284;7.226;2023-05-10T13:02:57;14.50;99.90
21950;DHT22;11139;51.284;7.226;2023-05-10T13:05:23;14.50;99.90
21950;DHT22;11139;51.284;7.226;2023-05-10T13:07:48;14.50;99.90
21950;DHT22;11139;51.284;7.226;2023-05-10T13:10:14;14.50;99.90
21950;DHT22;11139;51.284;7.226;2023-05-10T13:12:39;14.50;99.90
21950;DHT22;11139;51.284;7.226;2023-05-10T13:15:05;14.50;99.90
21950;DHT22;11139;51.284;7.226;2023-05-10T13:17:31;14.50;99.90
21950;DHT22;11139;51.284;7.226;2023-05-10T13:19:57;14.50;99.90
21950;DHT22;11139;51.284;7.226;2023-05-10T13:24:50;14.60;99.90
21950;DHT22;11139;51.284;7.226;2023-05-10T13:27:16;14.60;99.90
21950;DHT22;11139;51.284;7.226;2023-05-10T13:29:42;14.50;99.90
21950;DHT22;11139;51.284;7.226;2023-05-10T13:32:07;14.60;99.90
21950;DHT22;11139;51.284;7.226;2023-05-10T13:34:33;14.60;99.90
21950;DHT22;11139;51.284;7.226;2023-05-10T13:36:58;14.60;99.90
21950;DHT22;11139;51.284;7.226;2023-05-10T13:39:24;14.60;99.90
21950;DHT22;11139;51.284;7.226;2023-05-10T13:41:49;14.60;99.90
21950;DHT22;11139;51.284;7.226;2023-05-10T13:44:15;14.60;99.90
21950;DHT22;11139;51.284;7.226;2023-05-10T13:46:41;14.60;99.90
21950;DHT22;11139;51.284;7.226;2023-05-10T13:49:08;14.60;99.90
21950;DHT22;11139;51.284;7.226;2023-05-10T13:51:34;14.60;99.90
21950;DHT22;11139;51.284;7.226;2023-05-10T13:54:00;14.60;99.90
21950;DHT22;11139;51.284;7.226;2023-05-10T13:56:25;14.60;99.90
21950;DHT22;11139;51.284;7.226;2023-05-10T13:58:51;14.60;99.90
21950;DHT22;11139;51.284;7.226;2023-05-10T14:01:17;14.60;99.90
21950;DHT22;11139;51.284;7.226;2023-05-10T14:03:42;14.60;99.90
21950;DHT22;11139;51.284;7.226;2023-05-10T14:06:08;14.60;99.90
21950;DHT22;11139;51.284;7.226;2023-05-10T14:08:34;14.60;99.90
21950;DHT22;11139;51.284;7.226;2023-05-10T14:10:59;14.60;99.90
21950;DHT22;11139;51.284;7.226;2023-05-10T14:13:25;14.60;99.90
21950;DHT22;11139;51.284;7.226;2023-05-10T14:15:52;14.60;99.90
21950;DHT22;11139;51.284;7.226;2023-05-10T14:18:17;14.60;99.90
21950;DHT22;11139;51.284;7.226;2023-05-10T14:20:43;14.60;99.90
21950;DHT22;11139;51.284;7.226;2023-05-10T14:23:08;14.60;99.90
21950;DHT22;11139;51.284;7.226;2023-05-10T14:25:34;14.70;99.90
21950;DHT22;11139;51.284;7.226;2023-05-10T14:27:59;14.60;99.90
21950;DHT22;11139;51.284;7.226;2023-05-10T14:30:25;14.60;99.90
21950;DHT22;11139;51.284;7.226;2023-05-10T14:32:51;14.70;99.90
21950;DHT22;11139;51.284;7.226;2023-05-10T14:35:19;14.70;99.90
21950;DHT22;11139;51.284;7.226;2023-05-10T14:37:44;14.70;99.90
21950;DHT22;11139;51.284;7.226;2023-05-10T14:40:10;14.70;99.90
21950;DHT22;11139;51.284;7.226;2023-05-10T14:42:35;14.80;99.90
21950;DHT22;11139;51.284;7.226;2023-05-10T14:45:01;14.80;99.90
21950;DHT22;11139;51.284;7.226;2023-05-10T14:47:26;14.80;99.90
21950;DHT22;11139;51.284;7.226;2023-05-10T14:49:52;14.80;99.90
21950;DHT22;11139;51.284;7.226;2023-05-10T14:52:18;14.80;99.90
21950;DHT22;11139;51.284;7.226;2023-05-10T14:54:43;14.80;99.90
21950;DHT22;11139;51.284;7.226;2023-05-10T14:57:09;14.80;99.90
21950;DHT22;11139;51.284;7.226;2023-05-10T14:59:34;14.80;99.90
21950;DHT22;11139;51.284;7.226;2023-05-10T15:02:00;14.80;99.90
21950;DHT22;11139;51.284;7.226;2023-05-10T15:04:25;14.80;99.90
21950;DHT22;11139;51.284;7.226;2023-05-10T15:06:51;14.80;99.90
21950;DHT22;11139;51.284;7.226;2023-05-10T15:09:17;14.80;99.90
21950;DHT22;11139;51.284;7.226;2023-05-10T15:11:42;14.80;99.90
21950;DHT22;11139;51.284;7.226;2023-05-10T15:14:09;14.90;99.90
21950;DHT22;11139;51.284;7.226;2023-05-10T15:16:35;14.80;99.90
21950;DHT22;11139;51.284;7.226;2023-05-10T15:19:00;14.90;99.90
21950;DHT22;11139;51.284;7.226;2023-05-10T15:21:26;14.80;99.90
21950;DHT22;11139;51.284;7.226;2023-05-10T15:23:52;14.90;99.90
21950;DHT22;11139;51.284;7.226;2023-05-10T15:26:18;14.90;99.90
21950;DHT22;11139;51.284;7.226;2023-05-10T15:28:43;14.90;99.90
21950;DHT22;11139;51.284;7.226;2023-05-10T15:31:09;14.80;99.90
21950;DHT22;11139;51.284;7.226;2023-05-10T15:33:36;14.80;99.90
21950;DHT22;11139;51.284;7.226;2023-05-10T15:36:02;14.80;99.90
21950;DHT22;11139;51.284;7.226;2023-05-10T15:38:29;14.90;99.90
21950;DHT22;11139;51.284;7.226;2023-05-10T15:40:56;14.90;99.90
21950;DHT22;11139;51.284;7.226;2023-05-10T15:43:21;14.90;99.90
21950;DHT22;11139;51.284;7.226;2023-05-10T15:45:47;14.90;99.90
21950;DHT22;11139;51.284;7.226;2023-05-10T15:48:12;15.00;99.90
21950;DHT22;11139;51.284;7.226;2023-05-10T15:50:38;15.00;99.90
21950;DHT22;11139;51.284;7.226;2023-05-10T15:53:05;15.10;99.90
21950;DHT22;11139;51.284;7.226;2023-05-10T15:55:31;15.10;99.90
21950;DHT22;11139;51.284;7.226;2023-05-10T15:57:56;15.10;99.90
21950;DHT22;11139;51.284;7.226;2023-05-10T16:00:22;15.10;99.90
21950;DHT22;11139;51.284;7.226;2023-05-10T16:02:47;15.10;99.90
21950;DHT22;11139;51.284;7.226;2023-05-10T16:05:13;15.10;99.90
21950;DHT22;11139;51.284;7.226;2023-05-10T16:07:38;15.10;99.90
21950;DHT22;11139;51.284;7.226;2023-05-10T16:10:07;15.10;99.90
21950;DHT22;11139;51.284;7.226;2023-05-10T16:12:32;15.10;99.90
21950;DHT22;11139;51.284;7.226;2023-05-10T16:14:58;15.10;99.90
21950;DHT22;11139;51.284;7.226;2023-05-10T16:17:24;15.00;99.90
21950;DHT22;11139;51.284;7.226;2023-05-10T16:19:49;15.00;99.90
21950;DHT22;11139;51.284;7.226;2023-05-10T16:22:15;15.00;99.90
21950;DHT22;11139;51.284;7.226;2023-05-10T16:24:40;15.00;99.90
21950;DHT22;11139;51.284;7.226;2023-05-10T16:27:06;15.00;99.90
21950;DHT22;11139;51.284;7.226;2023-05-10T16:29:32;15.00;99.90
21950;DHT22;11139;51.284;7.226;2023-05-10T16:31:57;15.00;99.90
21950;DHT22;11139;51.284;7.226;2023-05-10T16:34:23;15.00;99.90
21950;DHT22;11139;51.284;7.226;2023-05-10T16:36:49;15.00;99.90
21950;DHT22;11139;51.284;7.226;2023-05-10T16:39:15;15.00;99.90
21950;DHT22;11139;51.284;7.226;2023-05-10T16:41:41;15.00;99.90
21950;DHT22;11139;51.284;7.226;2023-05-10T16:44:06;14.90;99.90
21950;DHT22;11139;51.284;7.226;2023-05-10T16:46:32;14.90;99.90
21950;DHT22;11139;51.284;7.226;2023-05-10T16:48:58;14.90;99.90
21950;DHT22;11139;51.284;7.226;2023-05-10T16:51:24;14.90;99.90
21950;DHT22;11139;51.284;7.226;2023-05-10T16:53:50;14.90;99.90
21950;DHT22;11139;51.284;7.226;2023-05-10T16:56:16;15.00;99.90
21950;DHT22;11139;51.284;7.226;2023-05-10T16:58:46;14.90;99.90
21950;DHT22;11139;51.284;7.226;2023-05-10T17:01:14;14.90;99.90
21950;DHT22;11139;51.284;7.226;2023-05-10T17:03:40;15.00;99.90
21950;DHT22;11139;51.284;7.226;2023-05-10T17:06:05;14.90;99.90
21950;DHT22;11139;51.284;7.226;2023-05-10T17:08:31;14.90;99.90
21950;DHT22;11139;51.284;7.226;2023-05-10T17:10:59;14.90;99.90
21950;DHT22;11139;51.284;7.226;2023-05-10T17:13:25;14.90;99.90
21950;DHT22;11139;51.284;7.226;2023-05-10T17:15:50;14.90;99.90
21950;DHT22;11139;51.284;7.226;2023-05-10T17:18:16;14.90;99.90
21950;DHT22;11139;51.284;7.226;2023-05-10T17:20:42;14.90;99.90
21950;DHT22;11139;51.284;7.226;2023-05-10T17:23:08;14.90;99.90
21950;DHT22;11139;51.284;7.226;2023-05-10T17:25:34;14.90;99.90
21950;DHT22;11139;51.284;7.226;2023-05-10T17:28:00;14.90;99.90
21950;DHT22;11139;51.284;7.226;2023-05-10T17:30:25;14.90;99.90
21950;DHT22;11139;51.284;7.226;2023-05-10T17:32:53;14.90;99.90
21950;DHT22;11139;51.284;7.226;2023-05-10T17:35:19;14.90;99.90
21950;DHT22;11139;51.284;7.226;2023-05-10T17:37:45;14.90;99.90
21950;DHT22;11139;51.284;7.226;2023-05-10T17:40:10;14.90;99.90
21950;DHT22;11139;51.284;7.226;2023-05-10T17:42:36;14.90;99.90
21950;DHT22;11139;51.284;7.226;2023-05-10T17:45:02;14.90;99.90
21950;DHT22;11139;51.284;7.226;2023-05-10T17:47:28;14.80;99.90
21950;DHT22;11139;51.284;7.226;2023-05-10T17:49:53;14.80;99.90
21950;DHT22;11139;51.284;7.226;2023-05-10T17:52:19;14.80;99.90
21950;DHT22;11139;51.284;7.226;2023-05-10T17:54:44;14.80;99.90
21950;DHT22;11139;51.284;7.226;2023-05-10T17:57:10;14.80;99.90
21950;DHT22;11139;51.284;7.226;2023-05-10T17:59:35;14.80;99.90
21950;DHT22;11139;51.284;7.226;2023-05-10T18:02:01;14.80;99.90
21950;DHT22;11139;51.284;7.226;2023-05-10T18:04:26;14.80;99.90
21950;DHT22;11139;51.284;7.226;2023-05-10T18:06:52;14.80;99.90